createdAt,value
2019-01-12T00:00:31.528Z,27.40
2019-01-12T00:01:14.042Z,27.41
2019-01-12T00:01:51.165Z,27.44
2019-01-12T00:02:28.281Z,27.48
2019-01-12T00:03:05.402Z,27.49
2019-01-12T00:03:42.050Z,27.52
2019-01-12T00:04:18.305Z,27.50
2019-01-12T00:04:55.026Z,27.51
2019-01-12T00:05:31.609Z,27.54
2019-01-12T00:06:08.683Z,27.56
2019-01-12T00:06:45.688Z,27.59
2019-01-12T00:07:22.027Z,27.62
2019-01-12T00:07:58.567Z,27.62
2019-01-12T00:08:35.741Z,27.62
2019-01-12T00:09:12.495Z,27.64
2019-01-12T00:09:49.575Z,27.66
2019-01-12T00:10:25.802Z,27.67
2019-01-12T00:11:01.939Z,27.70
2019-01-12T00:11:39.035Z,27.72
2019-01-12T00:12:16.149Z,27.73
2019-01-12T00:12:52.471Z,27.74
2019-01-12T00:13:28.835Z,27.78
2019-01-12T00:14:05.796Z,27.81
2019-01-12T00:14:42.230Z,27.84
2019-01-12T00:15:19.006Z,27.84
2019-01-12T00:15:56.078Z,27.86
2019-01-12T00:16:33.092Z,27.91
2019-01-12T00:17:10.028Z,27.90
2019-01-12T00:17:46.587Z,27.93
2019-01-12T00:18:23.004Z,27.94
2019-01-12T00:18:59.825Z,27.97
2019-01-12T00:19:36.602Z,28.02
2019-01-12T00:20:12.972Z,28.03
2019-01-12T00:20:52.548Z,28.04
2019-01-12T00:21:29.460Z,28.06
2019-01-12T00:22:05.928Z,28.08
2019-01-12T00:22:42.316Z,28.05
2019-01-12T00:23:19.307Z,28.06
2019-01-12T00:23:56.411Z,28.09
2019-01-12T00:24:32.949Z,28.14
2019-01-12T00:25:09.742Z,28.13
2019-01-12T00:25:46.706Z,28.15
2019-01-12T00:26:23.666Z,28.14
2019-01-12T00:26:59.960Z,28.16
2019-01-12T00:27:37.007Z,28.22
2019-01-12T00:28:13.305Z,28.21
2019-01-12T00:28:49.493Z,28.24
2019-01-12T00:29:26.430Z,28.24
2019-01-12T00:30:02.826Z,28.21
2019-01-12T00:30:39.089Z,28.25
2019-01-12T00:31:15.889Z,28.31
2019-01-12T00:31:52.621Z,28.34
2019-01-12T00:32:29.403Z,28.37
2019-01-12T00:33:06.402Z,28.40
2019-01-12T00:33:43.258Z,28.36
2019-01-12T00:34:20.187Z,28.41
2019-01-12T00:34:57.156Z,28.42
2019-01-12T00:35:34.123Z,28.45
2019-01-12T00:36:10.918Z,28.49
2019-01-12T00:36:47.133Z,28.52
2019-01-12T00:37:23.564Z,28.54
2019-01-12T00:38:02.071Z,28.57
2019-01-12T00:38:39.124Z,28.60
2019-01-12T00:39:15.560Z,28.59
2019-01-12T00:39:51.966Z,28.61
2019-01-12T00:40:28.307Z,28.62
2019-01-12T00:41:04.501Z,28.62
2019-01-12T00:41:41.543Z,28.59
2019-01-12T00:42:18.505Z,28.62
2019-01-12T00:42:54.835Z,28.66
2019-01-12T00:43:31.946Z,28.67
2019-01-12T00:44:08.715Z,28.67
2019-01-12T00:44:45.061Z,28.65
2019-01-12T00:45:21.386Z,28.67
2019-01-12T00:45:59.991Z,28.69
2019-01-12T00:46:36.235Z,28.71
2019-01-12T00:47:13.346Z,28.74
2019-01-12T00:47:50.240Z,28.80
2019-01-12T00:48:26.637Z,28.86
2019-01-12T00:49:03.382Z,28.89
2019-01-12T00:49:39.726Z,28.92
2019-01-12T00:50:17.137Z,28.98
2019-01-12T00:50:54.060Z,29.02
2019-01-12T00:51:30.903Z,29.04
2019-01-12T00:52:08.916Z,29.06
2019-01-12T00:52:45.273Z,29.02
2019-01-12T00:53:22.250Z,29.08
2019-01-12T00:53:58.639Z,29.11
2019-01-12T00:54:38.662Z,29.15
2019-01-12T00:55:14.363Z,29.17
2019-01-12T00:55:50.764Z,29.19
2019-01-12T00:56:27.089Z,29.21
2019-01-12T00:57:03.858Z,29.29
2019-01-12T00:57:40.943Z,29.32
2019-01-12T00:58:17.118Z,29.34
2019-01-12T00:58:53.527Z,29.34
2019-01-12T00:59:30.214Z,29.36
2019-01-12T01:00:09.134Z,29.29
2019-01-12T01:00:46.290Z,29.31
2019-01-12T01:01:23.456Z,29.32
2019-01-12T01:02:00.512Z,29.34
2019-01-12T01:02:36.945Z,29.38
2019-01-12T01:03:13.777Z,29.44
2019-01-12T01:03:50.129Z,29.51
2019-01-12T01:04:26.912Z,29.49
2019-01-12T01:05:03.571Z,29.51
2019-01-12T01:05:40.481Z,29.51
2019-01-12T01:06:16.766Z,29.62
2019-01-12T01:06:53.651Z,29.57
2019-01-12T01:07:30.904Z,29.68
2019-01-12T01:08:07.266Z,29.73
2019-01-12T01:08:43.686Z,29.78
2019-01-12T01:09:20.895Z,29.76
2019-01-12T01:09:57.250Z,29.85
2019-01-12T01:10:34.226Z,29.83
2019-01-12T01:11:11.313Z,29.83
2019-01-12T01:11:48.164Z,29.85
2019-01-12T01:12:24.486Z,29.89
2019-01-12T01:13:00.818Z,29.94
2019-01-12T01:13:37.142Z,29.95
2019-01-12T01:14:14.136Z,29.95
2019-01-12T01:14:51.398Z,29.98
2019-01-12T01:15:28.158Z,30.08
2019-01-12T01:16:04.859Z,30.08
2019-01-12T01:16:41.257Z,30.17
2019-01-12T01:17:17.493Z,30.17
2019-01-12T01:17:54.340Z,30.13
2019-01-12T01:18:31.405Z,30.18
2019-01-12T01:19:08.037Z,30.17
2019-01-12T01:19:44.991Z,30.29
2019-01-12T01:20:22.212Z,30.31
2019-01-12T01:20:58.580Z,30.36
2019-01-12T01:21:34.974Z,30.34
2019-01-12T01:22:11.316Z,30.34
2019-01-12T01:22:47.524Z,30.41
2019-01-12T01:23:24.508Z,30.35
2019-01-12T01:24:00.674Z,30.42
2019-01-12T01:24:38.040Z,30.42
2019-01-12T01:25:15.155Z,30.45
2019-01-12T01:25:51.468Z,30.57
2019-01-12T01:26:28.264Z,30.58
2019-01-12T01:27:05.164Z,30.58
2019-01-12T01:27:42.267Z,30.59
2019-01-12T01:28:19.158Z,30.67
2019-01-12T01:28:55.859Z,30.67
2019-01-12T01:29:32.861Z,30.67
2019-01-12T01:30:15.814Z,30.75
2019-01-12T01:30:52.722Z,30.75
2019-01-12T01:31:29.457Z,30.78
2019-01-12T01:32:05.787Z,30.89
2019-01-12T01:32:42.991Z,30.89
2019-01-12T01:33:19.326Z,30.95
2019-01-12T01:33:56.007Z,30.99
2019-01-12T01:34:38.326Z,31.02
2019-01-12T01:35:15.386Z,31.02
2019-01-12T01:35:53.060Z,31.05
2019-01-12T01:36:29.298Z,31.05
2019-01-12T01:37:06.386Z,31.07
2019-01-12T01:37:44.578Z,31.09
2019-01-12T01:38:21.753Z,31.04
2019-01-12T01:38:57.982Z,31.11
2019-01-12T01:39:35.111Z,31.01
2019-01-12T01:40:14.009Z,31.11
2019-01-12T01:40:51.190Z,31.11
2019-01-12T01:41:28.186Z,31.16
2019-01-12T01:42:05.287Z,31.23
2019-01-12T01:42:41.654Z,31.22
2019-01-12T01:43:18.095Z,31.22
2019-01-12T01:43:55.196Z,31.33
2019-01-12T01:44:32.297Z,31.35
2019-01-12T01:45:09.419Z,31.38
2019-01-12T01:45:46.642Z,31.30
2019-01-12T01:46:22.843Z,31.31
2019-01-12T01:47:00.166Z,31.31
2019-01-12T01:47:37.048Z,31.37
2019-01-12T01:48:13.355Z,31.39
2019-01-12T01:48:49.568Z,31.39
2019-01-12T01:49:26.562Z,31.34
2019-01-12T01:50:02.738Z,31.42
2019-01-12T01:50:39.109Z,31.45
2019-01-12T01:51:15.651Z,31.51
2019-01-12T01:51:55.470Z,31.57
2019-01-12T01:52:32.087Z,31.59
2019-01-12T01:53:08.701Z,31.61
2019-01-12T01:53:45.719Z,31.60
2019-01-12T01:54:23.136Z,31.57
2019-01-12T01:54:59.593Z,31.59
2019-01-12T01:55:35.900Z,31.62
2019-01-12T01:56:12.342Z,31.60
2019-01-12T01:56:48.915Z,31.61
2019-01-12T01:57:26.171Z,31.64
2019-01-12T01:58:03.208Z,31.65
2019-01-12T01:58:39.659Z,31.62
2019-01-12T01:59:16.802Z,31.71
2019-01-12T01:59:53.891Z,31.73
2019-01-12T02:00:30.118Z,31.71
2019-01-12T02:01:06.495Z,31.75
2019-01-12T02:01:43.533Z,31.77
2019-01-12T02:02:19.790Z,31.79
2019-01-12T02:02:56.797Z,31.86
2019-01-12T02:03:33.762Z,31.88
2019-01-12T02:04:09.993Z,31.94
2019-01-12T02:04:47.075Z,31.97
2019-01-12T02:05:24.084Z,31.95
2019-01-12T02:06:01.460Z,32.02
2019-01-12T02:06:38.476Z,31.99
2019-01-12T02:07:15.420Z,32.03
2019-01-12T02:07:51.797Z,32.02
2019-01-12T02:08:28.622Z,31.99
2019-01-12T02:09:07.722Z,31.94
2019-01-12T02:09:44.872Z,31.86
2019-01-12T02:10:23.195Z,31.78
2019-01-12T02:10:59.683Z,31.75
2019-01-12T02:11:36.406Z,31.69
2019-01-12T02:12:13.074Z,31.66
2019-01-12T02:12:49.849Z,31.66
2019-01-12T02:13:27.009Z,31.63
2019-01-12T02:14:03.363Z,31.63
2019-01-12T02:14:39.682Z,31.45
2019-01-12T02:15:16.561Z,31.45
2019-01-12T02:15:52.778Z,31.42
2019-01-12T02:16:29.547Z,31.42
2019-01-12T02:17:05.940Z,31.39
2019-01-12T02:17:42.829Z,31.39
2019-01-12T02:18:19.505Z,31.31
2019-01-12T02:18:55.691Z,31.18
2019-01-12T02:19:32.071Z,31.18
2019-01-12T02:20:09.096Z,31.23
2019-01-12T02:20:45.871Z,31.10
2019-01-12T02:21:22.242Z,31.13
2019-01-12T02:21:59.340Z,31.13
2019-01-12T02:22:36.303Z,31.12
2019-01-12T02:23:13.241Z,31.13
2019-01-12T02:23:49.599Z,31.13
2019-01-12T02:24:25.857Z,31.13
2019-01-12T02:25:02.201Z,31.13
2019-01-12T02:25:39.174Z,31.08
2019-01-12T02:26:16.272Z,31.08
2019-01-12T02:26:52.528Z,31.14
2019-01-12T02:27:29.636Z,31.14
2019-01-12T02:28:06.105Z,31.15
2019-01-12T02:28:42.390Z,31.14
2019-01-12T02:29:19.959Z,31.14
2019-01-12T02:29:57.181Z,31.16
2019-01-12T02:30:33.317Z,31.16
2019-01-12T02:31:10.307Z,31.13
2019-01-12T02:31:46.640Z,31.13
2019-01-12T02:32:22.929Z,31.13
2019-01-12T02:33:00.211Z,31.11
2019-01-12T02:33:36.451Z,31.11
2019-01-12T02:34:12.812Z,31.14
2019-01-12T02:34:49.842Z,31.11
2019-01-12T02:35:27.870Z,31.26
2019-01-12T02:36:04.994Z,31.28
2019-01-12T02:36:41.879Z,31.29
2019-01-12T02:37:18.816Z,31.31
2019-01-12T02:37:55.190Z,31.34
2019-01-12T02:38:31.980Z,31.36
2019-01-12T02:39:09.822Z,31.38
2019-01-12T02:39:46.790Z,31.42
2019-01-12T02:40:23.625Z,31.42
2019-01-12T02:40:59.927Z,31.48
2019-01-12T02:41:36.343Z,31.48
2019-01-12T02:42:12.748Z,31.43
2019-01-12T02:42:49.699Z,31.48
2019-01-12T02:43:26.551Z,31.48
2019-01-12T02:44:02.978Z,31.55
2019-01-12T02:44:40.180Z,31.55
2019-01-12T02:45:17.354Z,31.64
2019-01-12T02:45:55.334Z,31.66
2019-01-12T02:46:31.663Z,31.72
2019-01-12T02:47:08.673Z,31.66
2019-01-12T02:47:45.461Z,31.66
2019-01-12T02:48:22.219Z,31.79
2019-01-12T02:48:59.675Z,31.87
2019-01-12T02:49:37.516Z,31.85
2019-01-12T02:50:14.192Z,31.87
2019-01-12T02:50:50.492Z,31.85
2019-01-12T02:51:26.813Z,31.89
2019-01-12T02:52:03.304Z,31.89
2019-01-12T02:52:39.472Z,31.90
2019-01-12T02:53:15.859Z,31.87
2019-01-12T02:53:52.754Z,31.88
2019-01-12T02:54:29.806Z,31.87
2019-01-12T02:55:08.943Z,31.86
2019-01-12T02:55:44.460Z,31.84
2019-01-12T02:56:21.191Z,31.95
2019-01-12T02:56:57.850Z,32.06
2019-01-12T02:57:34.568Z,32.03
2019-01-12T02:58:11.517Z,32.01
2019-01-12T02:58:48.106Z,32.02
2019-01-12T02:59:24.721Z,32.04
2019-01-12T03:00:00.972Z,32.07
2019-01-12T03:00:37.599Z,32.14
2019-01-12T03:01:13.822Z,32.19
2019-01-12T03:01:51.023Z,32.23
2019-01-12T03:02:27.324Z,32.21
2019-01-12T03:03:03.487Z,32.22
2019-01-12T03:03:41.411Z,32.20
2019-01-12T03:04:17.572Z,32.17
2019-01-12T03:04:54.052Z,32.14
2019-01-12T03:05:31.187Z,32.13
2019-01-12T03:06:07.905Z,32.10
2019-01-12T03:06:44.694Z,32.12
2019-01-12T03:07:21.557Z,32.15
2019-01-12T03:07:58.328Z,32.18
2019-01-12T03:08:34.694Z,32.26
2019-01-12T03:09:11.535Z,32.31
2019-01-12T03:09:48.262Z,32.32
2019-01-12T03:10:24.702Z,32.31
2019-01-12T03:11:01.908Z,32.31
2019-01-12T03:11:39.273Z,32.27
2019-01-12T03:12:15.588Z,32.27
2019-01-12T03:12:52.894Z,32.25
2019-01-12T03:13:29.233Z,32.33
2019-01-12T03:14:05.986Z,32.39
2019-01-12T03:14:42.741Z,32.43
2019-01-12T03:15:20.781Z,32.38
2019-01-12T03:15:57.887Z,32.37
2019-01-12T03:16:34.715Z,32.37
2019-01-12T03:17:11.136Z,32.39
2019-01-12T03:17:47.953Z,32.37
2019-01-12T03:18:24.350Z,32.34
2019-01-12T03:19:01.317Z,32.31
2019-01-12T03:19:37.658Z,32.30
2019-01-12T03:20:15.894Z,32.27
2019-01-12T03:20:52.926Z,32.26
2019-01-12T03:21:29.264Z,32.19
2019-01-12T03:22:05.639Z,32.18
2019-01-12T03:22:42.674Z,32.17
2019-01-12T03:23:18.998Z,32.16
2019-01-12T03:23:55.290Z,32.15
2019-01-12T03:24:32.166Z,32.13
2019-01-12T03:25:17.172Z,32.14
2019-01-12T03:25:47.363Z,32.14
2019-01-12T03:26:24.429Z,32.15
2019-01-12T03:27:01.564Z,32.17
2019-01-12T03:27:38.956Z,32.19
2019-01-12T03:28:15.912Z,32.17
2019-01-12T03:28:52.798Z,32.19
2019-01-12T03:29:28.943Z,32.20
2019-01-12T03:30:05.889Z,32.21
2019-01-12T03:30:43.071Z,32.19
2019-01-12T03:31:20.396Z,32.18
2019-01-12T03:31:58.226Z,32.19
2019-01-12T03:32:35.178Z,32.18
2019-01-12T03:33:11.354Z,32.17
2019-01-12T03:33:47.691Z,32.15
2019-01-12T03:34:24.700Z,32.13
2019-01-12T03:35:01.971Z,32.10
2019-01-12T03:35:38.262Z,32.09
2019-01-12T03:36:15.133Z,32.09
2019-01-12T03:36:52.243Z,32.08
2019-01-12T03:37:28.608Z,32.10
2019-01-12T03:38:05.659Z,32.08
2019-01-12T03:38:42.670Z,32.08
2019-01-12T03:39:19.567Z,32.10
2019-01-12T03:39:56.623Z,32.11
2019-01-12T03:40:32.954Z,32.10
2019-01-12T03:41:09.295Z,32.08
2019-01-12T03:41:45.483Z,32.10
2019-01-12T03:42:21.729Z,32.11
2019-01-12T03:42:58.180Z,32.14
2019-01-12T03:43:35.161Z,32.15
2019-01-12T03:44:12.184Z,32.09
2019-01-12T03:44:48.436Z,32.07
2019-01-12T03:45:25.357Z,32.09
2019-01-12T03:46:03.047Z,32.13
2019-01-12T03:46:39.450Z,32.14
2019-01-12T03:47:16.385Z,32.15
2019-01-12T03:47:52.897Z,32.16
2019-01-12T03:48:29.305Z,32.20
2019-01-12T03:49:06.115Z,32.29
2019-01-12T03:49:43.398Z,32.34
2019-01-12T03:50:20.300Z,32.35
2019-01-12T03:50:56.499Z,32.39
2019-01-12T03:51:32.818Z,32.43
2019-01-12T03:52:11.716Z,32.46
2019-01-12T03:52:48.245Z,32.50
2019-01-12T03:53:24.772Z,32.53
2019-01-12T03:54:01.487Z,32.54
2019-01-12T03:54:38.029Z,32.60
2019-01-12T03:55:14.497Z,32.64
2019-01-12T03:55:51.289Z,32.67
2019-01-12T03:56:27.811Z,32.63
2019-01-12T03:57:05.074Z,32.64
2019-01-12T03:57:41.573Z,32.68
2019-01-12T03:58:18.339Z,32.79
2019-01-12T03:58:55.220Z,32.81
2019-01-12T03:59:31.846Z,32.87
2019-01-12T04:00:12.246Z,32.99
2019-01-12T04:00:49.084Z,32.99
2019-01-12T04:01:25.405Z,33.09
2019-01-12T04:02:02.415Z,33.14
2019-01-12T04:02:39.239Z,33.23
2019-01-12T04:03:16.306Z,33.34
2019-01-12T04:03:53.663Z,33.42
2019-01-12T04:04:30.012Z,33.39
2019-01-12T04:05:06.472Z,33.44
2019-01-12T04:05:43.517Z,33.49
2019-01-12T04:06:19.915Z,33.54
2019-01-12T04:06:56.704Z,33.52
2019-01-12T04:07:33.102Z,33.58
2019-01-12T04:08:09.364Z,33.57
2019-01-12T04:08:46.231Z,33.60
2019-01-12T04:09:23.244Z,33.65
2019-01-12T04:09:59.452Z,33.67
2019-01-12T04:10:36.436Z,33.73
2019-01-12T04:11:12.765Z,33.73
2019-01-12T04:11:49.123Z,33.65
2019-01-12T04:12:26.627Z,33.59
2019-01-12T04:13:03.274Z,33.56
2019-01-12T04:13:40.602Z,33.51
2019-01-12T04:14:17.305Z,33.44
2019-01-12T04:14:54.154Z,33.46
2019-01-12T04:15:30.756Z,33.46
2019-01-12T04:16:07.784Z,33.50
2019-01-12T04:16:44.907Z,33.52
2019-01-12T04:17:22.530Z,33.53
2019-01-12T04:17:59.183Z,33.54
2019-01-12T04:18:36.081Z,33.48
2019-01-12T04:19:12.753Z,33.46
2019-01-12T04:19:49.599Z,33.41
2019-01-12T04:20:26.590Z,33.40
2019-01-12T04:21:03.002Z,33.43
2019-01-12T04:21:39.647Z,33.47
2019-01-12T04:22:16.194Z,33.52
2019-01-12T04:22:52.537Z,33.56
2019-01-12T04:23:29.774Z,33.61
2019-01-12T04:24:06.155Z,33.69
2019-01-12T04:24:43.137Z,33.77
2019-01-12T04:25:20.037Z,33.75
2019-01-12T04:25:57.904Z,33.74
2019-01-12T04:26:34.993Z,33.68
2019-01-12T04:27:11.575Z,33.71
2019-01-12T04:27:47.876Z,33.82
2019-01-12T04:28:24.329Z,33.78
2019-01-12T04:29:00.652Z,33.83
2019-01-12T04:29:37.515Z,33.87
2019-01-12T04:30:16.544Z,33.82
2019-01-12T04:30:52.912Z,33.79
2019-01-12T04:31:29.880Z,33.83
2019-01-12T04:32:06.750Z,33.85
2019-01-12T04:32:43.147Z,33.79
2019-01-12T04:33:19.877Z,33.73
2019-01-12T04:33:56.983Z,33.66
2019-01-12T04:34:33.251Z,33.66
2019-01-12T04:35:10.172Z,33.68
2019-01-12T04:35:47.017Z,33.67
2019-01-12T04:36:23.329Z,33.64
2019-01-12T04:36:59.696Z,33.61
2019-01-12T04:37:36.492Z,33.63
2019-01-12T04:38:13.713Z,33.62
2019-01-12T04:38:50.629Z,33.61
2019-01-12T04:39:27.688Z,33.59
2019-01-12T04:40:04.112Z,33.58
2019-01-12T04:40:41.114Z,33.60
2019-01-12T04:41:18.173Z,33.56
2019-01-12T04:41:54.630Z,33.58
2019-01-12T04:42:31.314Z,33.57
2019-01-12T04:43:07.659Z,33.53
2019-01-12T04:43:44.858Z,33.55
2019-01-12T04:44:21.982Z,33.55
2019-01-12T04:44:59.059Z,33.57
2019-01-12T04:45:36.029Z,33.58
2019-01-12T04:46:13.034Z,33.63
2019-01-12T04:46:49.336Z,33.65
2019-01-12T04:47:25.869Z,33.67
2019-01-12T04:48:02.516Z,33.68
2019-01-12T04:48:39.514Z,33.78
2019-01-12T04:49:16.596Z,33.84
2019-01-12T04:49:53.188Z,33.89
2019-01-12T04:50:30.278Z,33.90
2019-01-12T04:51:07.155Z,33.90
2019-01-12T04:51:43.568Z,33.94
2019-01-12T04:52:20.363Z,34.00
2019-01-12T04:52:57.619Z,34.05
2019-01-12T04:53:33.933Z,34.06
2019-01-12T04:54:10.784Z,34.01
2019-01-12T04:54:47.311Z,34.04
2019-01-12T04:55:23.682Z,34.04
2019-01-12T04:55:59.977Z,34.05
2019-01-12T04:56:37.397Z,34.05
2019-01-12T04:57:13.790Z,34.08
2019-01-12T04:57:51.207Z,34.09
2019-01-12T04:58:28.299Z,34.06
2019-01-12T04:59:04.825Z,34.10
2019-01-12T04:59:41.271Z,34.14
2019-01-12T05:00:19.291Z,34.18
2019-01-12T05:00:55.730Z,34.21
2019-01-12T05:01:31.941Z,34.22
2019-01-12T05:02:08.715Z,34.27
2019-01-12T05:02:45.134Z,34.29
2019-01-12T05:03:22.134Z,34.32
2019-01-12T05:03:58.434Z,34.35
2019-01-12T05:04:35.370Z,34.37
2019-01-12T05:05:11.776Z,34.36
2019-01-12T05:05:48.204Z,34.38
2019-01-12T05:06:24.850Z,34.36
2019-01-12T05:07:01.414Z,34.41
2019-01-12T05:07:38.396Z,34.39
2019-01-12T05:08:14.827Z,34.43
2019-01-12T05:08:51.233Z,34.41
2019-01-12T05:09:27.532Z,34.42
2019-01-12T05:10:04.235Z,34.42
2019-01-12T05:10:40.762Z,34.42
2019-01-12T05:11:17.933Z,34.38
2019-01-12T05:11:54.522Z,34.37
2019-01-12T05:12:31.679Z,34.34
2019-01-12T05:13:08.002Z,34.35
2019-01-12T05:13:44.505Z,34.32
2019-01-12T05:14:20.831Z,34.27
2019-01-12T05:14:57.327Z,34.29
2019-01-12T05:15:34.326Z,34.27
2019-01-12T05:16:11.283Z,34.26
2019-01-12T05:16:48.214Z,34.23
2019-01-12T05:17:24.712Z,34.24
2019-01-12T05:18:01.509Z,34.24
2019-01-12T05:18:37.860Z,34.26
2019-01-12T05:19:14.573Z,34.29
2019-01-12T05:19:52.083Z,34.30
2019-01-12T05:20:29.041Z,34.31
2019-01-12T05:21:06.283Z,34.38
2019-01-12T05:21:43.033Z,34.43
2019-01-12T05:22:19.414Z,34.48
2019-01-12T05:22:56.213Z,34.54
2019-01-12T05:23:32.973Z,34.62
2019-01-12T05:24:10.163Z,34.63
2019-01-12T05:24:46.496Z,34.65
2019-01-12T05:25:23.220Z,34.62
2019-01-12T05:26:00.282Z,34.62
2019-01-12T05:26:37.334Z,34.57
2019-01-12T05:27:13.937Z,34.56
2019-01-12T05:27:51.035Z,34.54
2019-01-12T05:28:27.394Z,34.52
2019-01-12T05:29:04.426Z,34.46
2019-01-12T05:29:41.446Z,34.44
2019-01-12T05:30:26.548Z,34.39
2019-01-12T05:31:02.797Z,34.38
2019-01-12T05:31:39.881Z,34.36
2019-01-12T05:32:16.712Z,34.33
2019-01-12T05:32:53.377Z,34.29
2019-01-12T05:33:29.578Z,34.22
2019-01-12T05:34:06.350Z,34.23
2019-01-12T05:34:43.330Z,34.17
2019-01-12T05:35:20.514Z,34.10
2019-01-12T05:35:57.219Z,34.03
2019-01-12T05:36:34.299Z,34.04
2019-01-12T05:37:11.246Z,34.03
2019-01-12T05:37:47.953Z,34.03
2019-01-12T05:38:24.509Z,34.02
2019-01-12T05:39:02.029Z,34.02
2019-01-12T05:39:38.430Z,34.02
2019-01-12T05:40:15.345Z,34.00
2019-01-12T05:40:52.493Z,34.00
2019-01-12T05:41:28.817Z,34.00
2019-01-12T05:42:05.238Z,34.01
2019-01-12T05:42:42.436Z,34.04
2019-01-12T05:43:18.968Z,34.04
2019-01-12T05:43:55.991Z,34.03
2019-01-12T05:44:32.911Z,34.01
2019-01-12T05:45:09.598Z,33.98
2019-01-12T05:45:46.317Z,33.95
2019-01-12T05:46:22.648Z,33.94
2019-01-12T05:46:58.814Z,33.96
2019-01-12T05:47:35.727Z,33.99
2019-01-12T05:48:12.745Z,33.98
2019-01-12T05:48:48.986Z,33.94
2019-01-12T05:49:26.285Z,33.96
2019-01-12T05:50:03.364Z,33.97
2019-01-12T05:50:40.706Z,34.00
2019-01-12T05:51:17.629Z,34.03
2019-01-12T05:51:54.001Z,34.06
2019-01-12T05:52:31.097Z,34.10
2019-01-12T05:53:07.796Z,34.14
2019-01-12T05:53:44.730Z,34.16
2019-01-12T05:54:21.894Z,34.18
2019-01-12T05:54:58.117Z,34.20
2019-01-12T05:55:35.306Z,34.22
2019-01-12T05:56:12.329Z,34.25
2019-01-12T05:56:48.486Z,34.26
2019-01-12T05:57:26.250Z,34.25
2019-01-12T05:58:02.637Z,34.24
2019-01-12T05:58:40.047Z,34.24
2019-01-12T05:59:16.994Z,34.23
2019-01-12T05:59:54.002Z,34.22
2019-01-12T06:00:30.220Z,34.23
2019-01-12T06:01:07.148Z,34.21
2019-01-12T06:01:44.655Z,34.21
2019-01-12T06:02:21.017Z,34.19
2019-01-12T06:02:57.889Z,34.17
2019-01-12T06:03:34.976Z,34.16
2019-01-12T06:04:12.145Z,34.15
2019-01-12T06:04:48.519Z,34.12
2019-01-12T06:05:25.229Z,34.13
2019-01-12T06:06:01.638Z,34.14
2019-01-12T06:06:38.462Z,34.16
2019-01-12T06:07:15.244Z,34.17
2019-01-12T06:07:52.033Z,34.19
2019-01-12T06:08:28.490Z,34.20
2019-01-12T06:09:06.691Z,34.24
2019-01-12T06:09:43.472Z,34.25
2019-01-12T06:10:20.552Z,34.27
2019-01-12T06:10:57.321Z,34.29
2019-01-12T06:11:34.545Z,34.28
2019-01-12T06:12:10.977Z,34.30
2019-01-12T06:12:47.248Z,34.31
2019-01-12T06:13:24.523Z,34.33
2019-01-12T06:14:01.596Z,34.31
2019-01-12T06:14:38.018Z,34.33
2019-01-12T06:15:14.538Z,34.32
2019-01-12T06:15:52.039Z,34.32
2019-01-12T06:16:28.920Z,34.32
2019-01-12T06:17:05.745Z,34.32
2019-01-12T06:17:42.107Z,34.31
2019-01-12T06:18:18.858Z,34.29
2019-01-12T06:18:55.172Z,34.24
2019-01-12T06:19:31.522Z,34.27
2019-01-12T06:20:09.499Z,34.26
2019-01-12T06:20:46.660Z,34.24
2019-01-12T06:21:23.781Z,34.23
2019-01-12T06:22:00.179Z,34.22
2019-01-12T06:22:36.963Z,34.22
2019-01-12T06:23:13.035Z,34.22
2019-01-12T06:23:49.374Z,34.23
2019-01-12T06:24:26.649Z,34.23
2019-01-12T06:25:02.974Z,34.22
2019-01-12T06:25:39.447Z,34.21
2019-01-12T06:26:16.465Z,34.22
2019-01-12T06:26:53.388Z,34.21
2019-01-12T06:27:29.648Z,34.23
2019-01-12T06:28:05.934Z,34.23
2019-01-12T06:28:42.665Z,34.22
2019-01-12T06:29:19.529Z,34.21
2019-01-12T06:29:56.766Z,34.21
2019-01-12T06:30:33.591Z,34.23
2019-01-12T06:31:10.498Z,34.21
2019-01-12T06:31:47.451Z,34.21
2019-01-12T06:32:23.797Z,34.18
2019-01-12T06:33:00.605Z,34.19
2019-01-12T06:33:36.903Z,34.18
2019-01-12T06:34:13.239Z,34.18
2019-01-12T06:34:50.974Z,34.20
2019-01-12T06:35:28.204Z,34.19
2019-01-12T06:36:05.714Z,34.21
2019-01-12T06:36:42.059Z,34.22
2019-01-12T06:37:18.932Z,34.23
2019-01-12T06:37:55.203Z,34.24
2019-01-12T06:38:31.989Z,34.20
2019-01-12T06:39:10.912Z,34.21
2019-01-12T06:39:47.023Z,34.22
2019-01-12T06:40:23.145Z,34.20
2019-01-12T06:40:59.636Z,34.22
2019-01-12T06:41:35.956Z,34.21
2019-01-12T06:42:12.620Z,34.19
2019-01-12T06:42:49.606Z,34.20
2019-01-12T06:43:27.052Z,34.18
2019-01-12T06:44:03.435Z,34.17
2019-01-12T06:44:40.256Z,34.19
2019-01-12T06:45:17.744Z,34.15
2019-01-12T06:45:54.064Z,34.14
2019-01-12T06:46:30.771Z,34.16
2019-01-12T06:47:06.877Z,34.18
2019-01-12T06:47:43.920Z,34.19
2019-01-12T06:48:20.948Z,34.18
2019-01-12T06:48:58.055Z,34.20
2019-01-12T06:49:34.447Z,34.22
2019-01-12T06:50:12.033Z,34.23
2019-01-12T06:50:48.813Z,34.24
2019-01-12T06:51:25.189Z,34.26
2019-01-12T06:52:01.771Z,34.28
2019-01-12T06:52:38.585Z,34.30
2019-01-12T06:53:15.362Z,34.31
2019-01-12T06:53:52.427Z,34.31
2019-01-12T06:54:29.970Z,34.34
2019-01-12T06:55:07.225Z,34.34
2019-01-12T06:55:43.563Z,34.36
2019-01-12T06:56:20.850Z,34.36
2019-01-12T06:56:58.252Z,34.37
2019-01-12T06:57:34.493Z,34.38
2019-01-12T06:58:11.141Z,34.39
2019-01-12T06:58:48.350Z,34.41
2019-01-12T06:59:24.858Z,34.39
2019-01-12T07:00:01.969Z,34.38
2019-01-12T07:00:38.237Z,34.38
2019-01-12T07:01:15.192Z,34.38
2019-01-12T07:01:52.456Z,34.39
2019-01-12T07:02:29.642Z,34.39
2019-01-12T07:03:05.982Z,34.39
2019-01-12T07:03:42.592Z,34.39
2019-01-12T07:04:22.640Z,34.39
2019-01-12T07:04:59.068Z,34.37
2019-01-12T07:05:35.346Z,34.31
2019-01-12T07:06:12.334Z,34.28
2019-01-12T07:06:49.190Z,34.30
2019-01-12T07:07:26.012Z,34.29
2019-01-12T07:08:02.851Z,34.28
2019-01-12T07:08:39.827Z,34.28
2019-01-12T07:09:16.254Z,34.29
2019-01-12T07:09:52.763Z,34.26
2019-01-12T07:10:30.211Z,34.26
2019-01-12T07:11:06.746Z,34.25
2019-01-12T07:11:43.511Z,34.25
2019-01-12T07:12:20.410Z,34.26
2019-01-12T07:12:57.344Z,34.26
2019-01-12T07:13:34.158Z,34.27
2019-01-12T07:14:11.257Z,34.27
2019-01-12T07:14:48.616Z,34.26
2019-01-12T07:15:25.088Z,34.28
2019-01-12T07:16:02.074Z,34.28
2019-01-12T07:16:39.942Z,34.28
2019-01-12T07:17:16.193Z,34.28
2019-01-12T07:17:53.044Z,34.24
2019-01-12T07:18:30.003Z,34.25
2019-01-12T07:19:06.505Z,34.26
2019-01-12T07:19:42.857Z,34.28
2019-01-12T07:20:22.522Z,34.27
2019-01-12T07:20:59.568Z,34.26
2019-01-12T07:21:36.542Z,34.26
2019-01-12T07:22:13.205Z,34.24
2019-01-12T07:22:50.465Z,34.24
2019-01-12T07:23:27.647Z,34.24
2019-01-12T07:24:04.408Z,34.24
2019-01-12T07:24:41.384Z,34.25
2019-01-12T07:25:18.211Z,34.24
2019-01-12T07:25:54.866Z,34.25
2019-01-12T07:26:32.221Z,34.25
2019-01-12T07:27:09.290Z,34.24
2019-01-12T07:27:45.685Z,34.27
2019-01-12T07:28:21.819Z,34.26
2019-01-12T07:28:58.130Z,34.27
2019-01-12T07:29:34.782Z,34.29
2019-01-12T07:30:17.343Z,34.32
2019-01-12T07:30:55.639Z,34.34
2019-01-12T07:31:32.580Z,34.35
2019-01-12T07:32:09.028Z,34.38
2019-01-12T07:32:45.985Z,34.39
2019-01-12T07:33:23.962Z,34.41
2019-01-12T07:34:00.223Z,34.41
2019-01-12T07:34:37.490Z,34.42
2019-01-12T07:35:14.535Z,34.43
2019-01-12T07:35:51.961Z,34.42
2019-01-12T07:36:28.317Z,34.41
2019-01-12T07:37:04.787Z,34.35
2019-01-12T07:37:42.148Z,34.36
2019-01-12T07:38:18.327Z,34.36
2019-01-12T07:38:55.007Z,34.35
2019-01-12T07:39:32.126Z,34.34
2019-01-12T07:40:08.498Z,34.31
2019-01-12T07:40:45.872Z,34.30
2019-01-12T07:41:23.289Z,34.26
2019-01-12T07:42:00.912Z,34.26
2019-01-12T07:42:37.257Z,34.23
2019-01-12T07:43:13.631Z,34.22
2019-01-12T07:43:50.262Z,34.20
2019-01-12T07:44:26.802Z,34.19
2019-01-12T07:45:03.915Z,34.17
2019-01-12T07:45:40.983Z,34.16
2019-01-12T07:46:17.341Z,34.15
2019-01-12T07:46:54.565Z,34.13
2019-01-12T07:47:31.882Z,34.14
2019-01-12T07:48:08.353Z,34.11
2019-01-12T07:48:44.647Z,34.11
2019-01-12T07:49:20.821Z,34.08
2019-01-12T07:49:57.167Z,34.04
2019-01-12T07:50:34.192Z,34.01
2019-01-12T07:51:10.756Z,34.00
2019-01-12T07:51:47.633Z,33.98
2019-01-12T07:52:24.048Z,33.97
2019-01-12T07:53:02.188Z,33.95
2019-01-12T07:53:38.499Z,33.93
2019-01-12T07:54:14.872Z,33.92
2019-01-12T07:54:51.293Z,33.91